createdAt,value
2023-02-04T00:00:26.553Z,100.00
2023-02-04T00:02:56.935Z,100.00
2023-02-04T00:05:27.313Z,100.00
2023-02-04T00:08:00.222Z,100.00
2023-02-04T00:10:30.899Z,100.00
2023-02-04T00:13:01.461Z,100.00
2023-02-04T00:15:31.853Z,100.00
2023-02-04T00:18:03.370Z,100.00
2023-02-04T00:20:33.648Z,100.00
2023-02-04T00:23:06.620Z,100.00
2023-02-04T00:25:36.952Z,100.00
2023-02-04T00:28:07.914Z,100.00
2023-02-04T00:30:38.334Z,100.00
2023-02-04T00:33:08.711Z,100.00
2023-02-04T00:35:40.178Z,100.00
2023-02-04T00:38:12.864Z,100.00
2023-02-04T00:40:44.147Z,100.00
2023-02-04T00:43:14.471Z,100.00
2023-02-04T00:45:45.568Z,100.00
2023-02-04T00:48:15.776Z,100.00
2023-02-04T00:50:46.120Z,100.00
2023-02-04T00:53:19.022Z,100.00
2023-02-04T00:55:49.332Z,100.00
2023-02-04T00:58:19.646Z,100.00
2023-02-04T01:00:49.971Z,100.00
2023-02-04T01:03:20.303Z,100.00
2023-02-04T01:05:50.624Z,100.00
2023-02-04T01:08:23.652Z,100.00
2023-02-04T01:10:54.017Z,100.00
2023-02-04T01:13:24.490Z,100.00
2023-02-04T01:15:54.839Z,100.00
2023-02-04T01:18:25.536Z,100.00
2023-02-04T01:20:55.886Z,100.00
2023-02-04T01:23:28.757Z,100.00
2023-02-04T01:25:59.058Z,100.00
2023-02-04T01:28:29.709Z,100.00
2023-02-04T01:31:02.084Z,100.00
2023-02-04T01:33:32.819Z,100.00
2023-02-04T01:36:03.216Z,100.00
2023-02-04T01:38:36.066Z,100.00
2023-02-04T01:41:07.737Z,100.00
2023-02-04T01:43:38.058Z,100.00
2023-02-04T01:46:09.400Z,100.00
2023-02-04T01:48:39.798Z,100.00
2023-02-04T01:51:14.882Z,100.00
2023-02-04T01:53:47.882Z,100.00
2023-02-04T01:56:21.847Z,100.00
2023-02-04T01:58:53.270Z,100.00
2023-02-04T02:01:41.962Z,100.00
2023-02-04T02:04:13.893Z,100.00
2023-02-04T02:06:51.313Z,100.00
2023-02-04T02:09:24.578Z,100.00
2023-02-04T02:11:55.033Z,100.00
2023-02-04T02:14:25.752Z,99.35
2023-02-04T02:16:56.505Z,100.00
2023-02-04T02:19:32.568Z,100.00
2023-02-04T02:22:14.263Z,100.00
2023-02-04T02:24:47.266Z,100.00
2023-02-04T02:27:17.711Z,100.00
2023-02-04T02:29:48.360Z,99.21
2023-02-04T02:32:18.949Z,98.58
2023-02-04T02:34:50.216Z,98.87
2023-02-04T02:37:20.263Z,99.15
2023-02-04T02:39:53.514Z,98.42
2023-02-04T02:42:24.138Z,98.47
2023-02-04T02:44:55.068Z,98.27
2023-02-04T02:47:28.476Z,98.26
2023-02-04T02:49:58.941Z,98.33
2023-02-04T02:52:29.389Z,98.66
2023-02-04T02:55:02.384Z,99.11
2023-02-04T02:57:32.895Z,99.00
2023-02-04T03:00:04.263Z,99.49
2023-02-04T03:02:34.309Z,99.30
2023-02-04T03:05:04.767Z,99.58
2023-02-04T03:07:36.213Z,99.74
2023-02-04T03:10:09.777Z,99.78
2023-02-04T03:12:42.352Z,100.00
2023-02-04T03:15:13.603Z,99.93
2023-02-04T03:17:44.394Z,99.53
2023-02-04T03:20:17.288Z,98.87
2023-02-04T03:22:47.680Z,98.60
2023-02-04T03:25:24.876Z,98.82
2023-02-04T03:27:55.859Z,97.75
2023-02-04T03:30:28.161Z,97.58
2023-02-04T03:32:58.524Z,97.61
2023-02-04T03:35:29.008Z,98.70
2023-02-04T03:37:59.440Z,99.93
2023-02-04T03:40:33.068Z,100.00
2023-02-04T03:43:03.643Z,100.00
2023-02-04T03:45:44.638Z,100.00
2023-02-04T03:48:15.523Z,100.00
2023-02-04T03:50:46.063Z,100.00
2023-02-04T03:53:16.483Z,100.00
2023-02-04T03:55:49.430Z,100.00
2023-02-04T03:58:20.056Z,100.00
2023-02-04T04:00:50.607Z,100.00
2023-02-04T04:03:20.991Z,100.00
2023-02-04T04:05:51.359Z,100.00
2023-02-04T04:08:21.674Z,100.00
2023-02-04T04:10:54.578Z,100.00
2023-02-04T04:13:24.854Z,100.00
2023-02-04T04:15:55.193Z,100.00
2023-02-04T04:18:25.531Z,100.00
2023-02-04T04:20:55.854Z,99.20
2023-02-04T04:23:26.232Z,97.85
2023-02-04T04:25:59.147Z,98.15
2023-02-04T04:28:29.460Z,97.42
2023-02-04T04:31:00.034Z,97.81
2023-02-04T04:33:30.421Z,97.55
2023-02-04T04:36:00.745Z,97.64
2023-02-04T04:38:31.059Z,97.00
2023-02-04T04:41:03.964Z,97.55
2023-02-04T04:43:34.225Z,97.97
2023-02-04T04:46:04.524Z,97.67
2023-02-04T04:48:34.876Z,98.02
2023-02-04T04:51:05.216Z,97.53
2023-02-04T04:53:35.495Z,97.71
2023-02-04T04:56:09.172Z,97.21
2023-02-04T04:58:39.476Z,96.66
2023-02-04T05:01:09.850Z,96.76
2023-02-04T05:03:40.181Z,96.00
2023-02-04T05:06:11.128Z,95.03
2023-02-04T05:08:41.518Z,93.23
2023-02-04T05:11:14.460Z,93.10
2023-02-04T05:13:44.753Z,92.60
2023-02-04T05:16:16.147Z,92.55
2023-02-04T05:18:46.575Z,92.45
2023-02-04T05:21:16.906Z,92.13
2023-02-04T05:23:47.238Z,92.30
2023-02-04T05:26:29.920Z,90.55
2023-02-04T05:29:02.936Z,90.50
2023-02-04T05:31:33.293Z,90.75
2023-02-04T05:34:03.702Z,90.06
2023-02-04T05:36:34.057Z,89.82
2023-02-04T05:39:04.514Z,89.48
2023-02-04T05:41:37.502Z,89.24
2023-02-04T05:44:08.336Z,89.78
2023-02-04T05:46:39.398Z,89.68
2023-02-04T05:49:10.616Z,88.48
2023-02-04T05:51:40.987Z,89.16
2023-02-04T05:54:11.503Z,89.23
2023-02-04T05:56:44.492Z,88.71
2023-02-04T05:59:14.797Z,88.44
2023-02-04T06:01:45.142Z,88.75
2023-02-04T06:04:18.511Z,87.85
2023-02-04T06:06:49.028Z,86.77
2023-02-04T06:09:19.349Z,86.82
2023-02-04T06:11:52.177Z,86.65
2023-02-04T06:14:22.445Z,86.19
2023-02-04T06:16:52.718Z,86.35
2023-02-04T06:19:23.130Z,86.20
2023-02-04T06:21:53.405Z,86.37
2023-02-04T06:24:23.771Z,85.62
2023-02-04T06:26:56.758Z,85.83
2023-02-04T06:29:27.245Z,85.95
2023-02-04T06:31:57.742Z,86.04
2023-02-04T06:34:28.500Z,86.54
2023-02-04T06:36:58.921Z,87.04
2023-02-04T06:39:29.423Z,87.25
2023-02-04T06:42:02.510Z,87.35
2023-02-04T06:44:32.928Z,87.10
2023-02-04T06:47:03.314Z,86.39
2023-02-04T06:49:33.645Z,86.87
2023-02-04T06:52:03.992Z,86.66
2023-02-04T06:54:34.304Z,86.99
2023-02-04T06:57:09.382Z,87.97
2023-02-04T06:59:43.259Z,88.31
2023-02-04T07:02:15.558Z,88.44
2023-02-04T07:04:47.742Z,88.66
2023-02-04T07:07:18.482Z,88.24
2023-02-04T07:09:48.927Z,87.79
2023-02-04T07:12:22.221Z,87.85
2023-02-04T07:14:52.652Z,88.38
2023-02-04T07:17:22.923Z,87.41
2023-02-04T07:19:53.252Z,87.53
2023-02-04T07:22:23.514Z,87.67
2023-02-04T07:24:53.878Z,87.83
2023-02-04T07:27:26.858Z,88.13
2023-02-04T07:29:57.218Z,87.87
2023-02-04T07:32:27.976Z,87.99
2023-02-04T07:34:58.351Z,88.13
2023-02-04T07:37:28.729Z,87.53
2023-02-04T07:39:59.062Z,87.55
2023-02-04T07:42:31.961Z,87.60
2023-02-04T07:45:11.612Z,88.92
2023-02-04T07:47:41.946Z,88.06
2023-02-04T07:50:13.175Z,86.79
2023-02-04T07:52:43.257Z,85.50
2023-02-04T07:55:13.624Z,85.67
2023-02-04T07:57:46.527Z,85.29
2023-02-04T08:00:18.871Z,84.79
2023-02-04T08:02:49.292Z,84.84
2023-02-04T08:05:19.901Z,85.01
2023-02-04T08:07:50.308Z,84.95
2023-02-04T08:10:21.602Z,85.61
2023-02-04T08:12:54.905Z,86.28
2023-02-04T08:15:25.451Z,86.55
2023-02-04T08:17:55.831Z,86.59
2023-02-04T08:20:26.556Z,86.26
2023-02-04T08:22:57.482Z,86.51
2023-02-04T08:25:29.465Z,85.45
2023-02-04T08:28:02.647Z,86.77
2023-02-04T08:30:33.332Z,87.59
2023-02-04T08:33:06.375Z,86.27
2023-02-04T08:35:36.702Z,85.26
2023-02-04T08:38:07.020Z,84.96
2023-02-04T08:40:37.577Z,85.48
2023-02-04T08:43:10.531Z,85.42
2023-02-04T08:45:41.248Z,84.61
2023-02-04T08:48:11.665Z,83.93
2023-02-04T08:50:41.995Z,82.99
2023-02-04T08:53:12.399Z,82.35
2023-02-04T08:55:42.769Z,82.65
2023-02-04T08:58:15.650Z,82.47
2023-02-04T09:00:46.201Z,82.67
2023-02-04T09:03:16.620Z,83.15
2023-02-04T09:05:47.715Z,81.43
2023-02-04T09:08:18.613Z,80.14
2023-02-04T09:10:49.097Z,79.84
2023-02-04T09:13:22.145Z,78.67
2023-02-04T09:15:54.221Z,77.60
2023-02-04T09:18:25.953Z,77.45
2023-02-04T09:20:56.591Z,78.18
2023-02-04T09:23:27.062Z,78.50
2023-02-04T09:25:57.402Z,78.96
2023-02-04T09:28:30.564Z,77.30
2023-02-04T09:31:02.565Z,73.34
2023-02-04T09:33:34.145Z,73.95
2023-02-04T09:36:04.596Z,73.03
2023-02-04T09:38:35.283Z,72.99
2023-02-04T09:41:10.497Z,73.37
2023-02-04T09:43:46.440Z,73.74
2023-02-04T09:46:24.439Z,74.70
2023-02-04T09:48:55.477Z,74.94
2023-02-04T09:51:29.805Z,74.69
2023-02-04T09:54:09.911Z,73.09
2023-02-04T09:56:40.377Z,72.37
2023-02-04T09:59:18.513Z,72.39
2023-02-04T10:01:50.823Z,69.97
2023-02-04T10:04:21.766Z,67.93
2023-02-04T10:06:52.462Z,67.57
2023-02-04T10:09:22.882Z,66.47
2023-02-04T10:11:53.538Z,63.66
2023-02-04T10:14:26.870Z,61.28
2023-02-04T10:17:00.813Z,60.59
2023-02-04T10:19:33.990Z,61.11
2023-02-04T10:22:06.379Z,61.42
2023-02-04T10:24:37.544Z,61.23
2023-02-04T10:27:11.920Z,60.34
2023-02-04T10:29:45.487Z,61.84
2023-02-04T10:32:34.990Z,58.08
2023-02-04T10:35:06.577Z,57.46
2023-02-04T10:37:37.074Z,53.71
2023-02-04T10:40:28.846Z,50.29
2023-02-04T10:42:59.898Z,48.93
2023-02-04T10:45:33.501Z,48.37
2023-02-04T10:48:03.887Z,47.45
2023-02-04T10:50:34.526Z,48.15
2023-02-04T10:53:17.614Z,48.97
2023-02-04T10:55:49.755Z,49.56
2023-02-04T10:58:25.430Z,50.70
2023-02-04T11:00:58.540Z,51.76
2023-02-04T11:03:31.150Z,53.07
2023-02-04T11:06:03.807Z,54.23
2023-02-04T11:08:38.230Z,53.42
2023-02-04T11:11:11.346Z,52.11
2023-02-04T11:13:47.271Z,48.44
2023-02-04T11:16:30.558Z,48.95
2023-02-04T11:19:03.683Z,49.20
2023-02-04T11:21:49.113Z,50.04
2023-02-04T11:24:29.328Z,50.67
2023-02-04T11:27:20.778Z,50.31
2023-02-04T11:29:51.404Z,50.47
2023-02-04T11:32:38.174Z,48.70
2023-02-04T11:35:27.672Z,47.73
2023-02-04T11:37:58.692Z,43.71
2023-02-04T11:40:32.056Z,42.92
2023-02-04T11:43:06.290Z,42.60
2023-02-04T11:45:39.140Z,43.13
2023-02-04T11:48:19.294Z,43.41
2023-02-04T11:50:58.918Z,39.13
2023-02-04T11:53:36.821Z,39.36
2023-02-04T11:56:07.932Z,40.45
2023-02-04T11:58:43.613Z,38.58
2023-02-04T12:01:21.478Z,36.96
2023-02-04T12:04:00.949Z,39.11
2023-02-04T12:06:34.290Z,40.74
2023-02-04T12:09:17.332Z,41.19
2023-02-04T12:11:56.095Z,36.72
2023-02-04T12:14:33.066Z,35.74
2023-02-04T12:17:03.873Z,33.00
2023-02-04T12:19:36.844Z,34.35
2023-02-04T12:22:07.224Z,34.56
2023-02-04T12:24:37.620Z,34.50
2023-02-04T12:27:08.050Z,33.70
2023-02-04T12:29:38.486Z,34.70
2023-02-04T12:32:08.962Z,38.13
2023-02-04T12:34:42.044Z,40.53
2023-02-04T12:37:12.489Z,42.73
2023-02-04T12:39:42.857Z,43.93
2023-02-04T12:42:13.214Z,45.44
2023-02-04T12:44:43.615Z,46.71
2023-02-04T12:47:14.030Z,48.42
2023-02-04T12:49:47.383Z,48.00
2023-02-04T12:52:17.813Z,48.62
2023-02-04T12:54:48.232Z,47.92
2023-02-04T12:57:20.049Z,40.09
2023-02-04T12:59:51.928Z,36.30
2023-02-04T13:02:22.364Z,38.09
2023-02-04T13:04:56.056Z,38.01
2023-02-04T13:07:26.835Z,39.99
2023-02-04T13:09:57.514Z,41.78
2023-02-04T13:12:27.965Z,43.75
2023-02-04T13:14:58.301Z,45.16
2023-02-04T13:17:28.936Z,45.91
2023-02-04T13:20:01.920Z,46.61
2023-02-04T13:22:32.477Z,44.23
2023-02-04T13:25:04.194Z,44.55
2023-02-04T13:27:34.639Z,45.33
2023-02-04T13:30:04.922Z,44.23
2023-02-04T13:32:35.429Z,45.39
2023-02-04T13:35:09.418Z,45.72
2023-02-04T13:37:40.465Z,46.78
2023-02-04T13:40:13.990Z,46.75
2023-02-04T13:42:44.309Z,46.76
2023-02-04T13:45:16.373Z,48.12
2023-02-04T13:47:48.096Z,47.41
2023-02-04T13:50:21.674Z,47.06
2023-02-04T13:52:52.045Z,46.11
2023-02-04T13:55:22.441Z,43.36
2023-02-04T13:57:56.890Z,41.85
2023-02-04T14:00:27.705Z,40.79
2023-02-04T14:02:58.438Z,39.68
2023-02-04T14:05:31.463Z,37.97
2023-02-04T14:08:06.464Z,38.34
2023-02-04T14:10:38.618Z,40.05
2023-02-04T14:13:09.184Z,41.98
2023-02-04T14:15:41.681Z,43.63
2023-02-04T14:18:12.713Z,45.12
2023-02-04T14:20:46.113Z,46.86
2023-02-04T14:23:16.749Z,46.96
2023-02-04T14:25:47.193Z,47.43
2023-02-04T14:28:17.655Z,47.21
2023-02-04T14:30:48.253Z,48.00
2023-02-04T14:33:18.758Z,49.64
2023-02-04T14:35:52.256Z,49.89
2023-02-04T14:38:22.545Z,50.51
2023-02-04T14:40:52.871Z,50.86
2023-02-04T14:43:23.189Z,54.05
2023-02-04T14:45:53.529Z,55.76
2023-02-04T14:48:23.903Z,53.52
2023-02-04T14:50:56.859Z,53.46
2023-02-04T14:53:27.333Z,53.81
2023-02-04T14:55:57.752Z,54.50
2023-02-04T14:58:28.195Z,55.17
2023-02-04T15:00:59.375Z,55.07
2023-02-04T15:03:29.576Z,54.77
2023-02-04T15:06:02.845Z,54.35
2023-02-04T15:08:33.550Z,54.12
2023-02-04T15:11:04.220Z,54.82
2023-02-04T15:13:34.560Z,55.04
2023-02-04T15:16:05.550Z,55.36
2023-02-04T15:18:36.205Z,55.35
2023-02-04T15:21:09.248Z,55.31
2023-02-04T15:23:39.749Z,55.50
2023-02-04T15:26:10.166Z,56.19
2023-02-04T15:28:40.646Z,56.64
2023-02-04T15:31:12.429Z,57.31
2023-02-04T15:33:43.525Z,57.86
2023-02-04T15:36:16.659Z,58.75
2023-02-04T15:38:48.046Z,59.09
2023-02-04T15:41:18.181Z,59.38
2023-02-04T15:43:49.013Z,59.52
2023-02-04T15:46:19.392Z,59.98
2023-02-04T15:48:49.978Z,60.45
2023-02-04T15:51:22.994Z,60.65
2023-02-04T15:53:53.322Z,60.99
2023-02-04T15:56:23.934Z,61.52
2023-02-04T15:58:54.913Z,62.60
2023-02-04T16:01:25.289Z,62.67
2023-02-04T16:03:56.683Z,62.86
2023-02-04T16:06:29.399Z,63.26
2023-02-04T16:08:59.780Z,63.44
2023-02-04T16:11:30.168Z,63.45
2023-02-04T16:14:00.630Z,63.57
2023-02-04T16:16:33.517Z,63.98
2023-02-04T16:19:04.497Z,64.42
2023-02-04T16:21:37.521Z,65.76
2023-02-04T16:24:09.237Z,66.56
2023-02-04T16:26:39.509Z,67.20
2023-02-04T16:29:09.956Z,66.85
2023-02-04T16:31:40.387Z,66.37
2023-02-04T16:34:10.784Z,66.55
2023-02-04T16:36:43.893Z,66.31
2023-02-04T16:39:14.312Z,66.30
2023-02-04T16:41:44.771Z,65.97
2023-02-04T16:44:15.264Z,66.29
2023-02-04T16:46:45.787Z,66.65
2023-02-04T16:49:16.347Z,66.66
2023-02-04T16:51:49.418Z,67.05
2023-02-04T16:54:19.766Z,66.85
2023-02-04T16:56:50.295Z,66.64
2023-02-04T16:59:20.662Z,66.60
2023-02-04T17:01:51.308Z,66.45
2023-02-04T17:04:21.973Z,66.48
2023-02-04T17:06:55.362Z,66.89
2023-02-04T17:09:25.674Z,66.85
2023-02-04T17:11:56.150Z,67.17
2023-02-04T17:14:26.876Z,67.28
2023-02-04T17:16:57.509Z,67.42
2023-02-04T17:19:27.899Z,67.77
2023-02-04T17:22:01.016Z,68.00
2023-02-04T17:24:36.447Z,68.09
2023-02-04T17:27:12.480Z,68.31
2023-02-04T17:29:42.894Z,68.53
2023-02-04T17:32:13.243Z,68.56
2023-02-04T17:34:45.232Z,68.42
2023-02-04T17:37:20.476Z,68.72
2023-02-04T17:39:50.854Z,69.28
2023-02-04T17:42:21.755Z,69.67
2023-02-04T17:44:52.821Z,69.80
2023-02-04T17:47:23.453Z,69.57
2023-02-04T17:49:53.909Z,69.59
2023-02-04T17:52:27.048Z,69.56
2023-02-04T17:54:57.357Z,69.88
2023-02-04T17:57:27.862Z,69.94
2023-02-04T17:59:58.292Z,70.05
2023-02-04T18:02:32.178Z,70.34
2023-02-04T18:05:11.557Z,70.83
2023-02-04T18:07:50.858Z,70.79
2023-02-04T18:10:25.671Z,70.58
2023-02-04T18:12:56.664Z,70.74
2023-02-04T18:15:32.274Z,70.67
2023-02-04T18:18:16.983Z,70.90
2023-02-04T18:20:47.349Z,71.52
2023-02-04T18:23:22.318Z,71.94
2023-02-04T18:25:52.639Z,71.86
2023-02-04T18:28:24.748Z,71.84
2023-02-04T18:30:57.354Z,72.13
2023-02-04T18:33:30.020Z,72.30
2023-02-04T18:36:04.074Z,72.42
2023-02-04T18:38:43.411Z,72.99
2023-02-04T18:41:36.860Z,73.39
2023-02-04T18:44:32.616Z,73.86
2023-02-04T18:47:05.671Z,73.80
2023-02-04T18:49:39.791Z,74.17
2023-02-04T18:52:21.269Z,73.95
2023-02-04T18:54:58.311Z,73.92
2023-02-04T18:57:38.043Z,74.17
2023-02-04T19:00:35.024Z,74.56
2023-02-04T19:03:23.164Z,74.82
2023-02-04T19:05:54.472Z,74.69
2023-02-04T19:08:27.263Z,74.88
2023-02-04T19:11:02.156Z,75.46
2023-02-04T19:13:42.450Z,75.79
2023-02-04T19:16:36.500Z,75.99
2023-02-04T19:19:31.044Z,76.25
2023-02-04T19:22:01.460Z,76.67
2023-02-04T19:24:32.670Z,76.51
2023-02-04T19:27:30.859Z,76.41
2023-02-04T19:30:04.149Z,76.21
2023-02-04T19:32:53.521Z,76.35
2023-02-04T19:35:26.303Z,76.43
2023-02-04T19:38:00.621Z,76.51
2023-02-04T19:40:35.489Z,76.85
2023-02-04T19:43:24.481Z,77.46
2023-02-04T19:45:55.001Z,77.41
2023-02-04T19:48:33.510Z,77.50
2023-02-04T19:51:21.379Z,78.11
2023-02-04T19:53:54.118Z,78.07
2023-02-04T19:56:35.782Z,78.30
2023-02-04T19:59:31.580Z,78.25
2023-02-04T20:02:23.168Z,78.62
2023-02-04T20:04:57.268Z,78.89
2023-02-04T20:07:29.955Z,78.54
2023-02-04T20:10:05.657Z,77.49
2023-02-04T20:12:36.834Z,77.43
2023-02-04T20:15:19.757Z,75.42
2023-02-04T20:17:51.526Z,75.31
2023-02-04T20:20:31.236Z,76.19
2023-02-04T20:23:03.630Z,76.68
2023-02-04T20:25:45.292Z,77.26
2023-02-04T20:28:43.519Z,77.61
2023-02-04T20:31:28.883Z,77.43
2023-02-04T20:34:01.562Z,77.33
2023-02-04T20:36:47.415Z,76.84
2023-02-04T20:39:43.318Z,76.99
2023-02-04T20:42:36.194Z,76.98
2023-02-04T20:45:31.013Z,77.22
2023-02-04T20:48:30.311Z,77.04
2023-02-04T20:51:04.028Z,76.39
2023-02-04T20:53:41.769Z,76.90
2023-02-04T20:56:29.062Z,76.35
2023-02-04T20:59:11.071Z,74.67
2023-02-04T21:01:44.180Z,74.42
2023-02-04T21:04:24.444Z,74.11
2023-02-04T21:06:58.252Z,74.10
2023-02-04T21:09:32.802Z,73.98
2023-02-04T21:12:04.929Z,74.21
2023-02-04T21:14:35.737Z,74.49
2023-02-04T21:17:06.155Z,74.20
2023-02-04T21:19:39.287Z,73.87
2023-02-04T21:22:09.649Z,74.28
2023-02-04T21:24:39.967Z,74.46
2023-02-04T21:27:10.440Z,74.39
2023-02-04T21:29:40.730Z,74.74
2023-02-04T21:32:11.338Z,74.94
2023-02-04T21:34:44.352Z,75.30
2023-02-04T21:37:14.701Z,75.42
2023-02-04T21:39:45.058Z,75.43
2023-02-04T21:42:15.349Z,74.64
2023-02-04T21:44:45.784Z,74.19
2023-02-04T21:47:17.815Z,74.53
2023-02-04T21:49:50.992Z,74.28
2023-02-04T21:52:21.349Z,74.07
2023-02-04T21:54:51.693Z,74.28
2023-02-04T21:57:22.032Z,74.54
2023-02-04T21:59:54.580Z,73.18
2023-02-04T22:02:25.709Z,72.84
2023-02-04T22:04:58.707Z,72.63
2023-02-04T22:07:29.162Z,72.74
2023-02-04T22:09:59.508Z,72.29
2023-02-04T22:12:32.274Z,71.89
2023-02-04T22:15:04.275Z,71.33
2023-02-04T22:17:34.947Z,71.06
2023-02-04T22:20:08.985Z,70.75
2023-02-04T22:22:39.373Z,70.73
2023-02-04T22:25:10.649Z,70.23
2023-02-04T22:27:40.784Z,69.84
2023-02-04T22:30:14.229Z,69.99
2023-02-04T22:32:44.783Z,69.71
2023-02-04T22:35:18.462Z,69.44
2023-02-04T22:37:48.846Z,69.21
2023-02-04T22:40:19.212Z,69.20
2023-02-04T22:42:49.609Z,69.08
2023-02-04T22:45:21.452Z,69.47
2023-02-04T22:47:51.771Z,69.61
2023-02-04T22:50:24.799Z,69.83
2023-02-04T22:52:55.250Z,69.75
2023-02-04T22:55:25.668Z,69.33
2023-02-04T22:57:55.995Z,69.58
2023-02-04T23:00:26.523Z,69.58
2023-02-04T23:02:57.018Z,69.77
2023-02-04T23:05:30.059Z,69.52
2023-02-04T23:08:00.395Z,69.67
2023-02-04T23:10:30.701Z,69.43
2023-02-04T23:13:00.999Z,69.79
2023-02-04T23:15:31.595Z,70.00
2023-02-04T23:18:02.213Z,69.88
2023-02-04T23:20:36.315Z,70.46
2023-02-04T23:23:07.042Z,70.17
2023-02-04T23:25:37.906Z,70.44
2023-02-04T23:28:08.729Z,70.80
2023-02-04T23:30:39.350Z,70.54
2023-02-04T23:33:10.991Z,70.52
2023-02-04T23:35:43.983Z,70.72
2023-02-04T23:38:14.303Z,70.51
2023-02-04T23:40:44.790Z,70.84
2023-02-04T23:43:15.173Z,70.83
2023-02-04T23:45:45.976Z,70.90
2023-02-04T23:48:16.421Z,71.21
2023-02-04T23:50:50.353Z,71.54
2023-02-04T23:53:21.432Z,71.84
2023-02-04T23:55:51.827Z,72.12
2023-02-04T23:58:22.585Z,72.05
